Time;durP1;ratioP1;P1;durP2;ratioP2;P2;SDS_P1;SDS_P2;PMS_P1;PMS_P2;Temp;Humidity;BMP_temperature;BMP_pressure;BME280_temperature;BME280_humidity;BME280_pressure;Samples;Min_cycle;Max_cycle;Signal;HPM_P1;HPM_P2
2023/03/22 00:00:47;;;;;;;0.10;0.10;;;10.00;99.90;;;;;;5017006;28;19948;-95
2023/03/22 00:03:13;;;;;;;0.10;0.10;;;;;;;;;;5007424;28;20069;-92
2023/03/22 00:05:39;;;;;;;0.00;0.00;;;;;;;;;;5014688;28;20038;-92
2023/03/22 00:08:06;;;;;;;0.00;0.00;;;10.10;99.90;;;;;;5010375;28;20030;-93
2023/03/22 00:10:33;;;;;;;0.00;0.00;;;10.20;99.90;;;;;;5011581;28;20120;-95
2023/03/22 00:12:59;;;;;;;0.10;0.10;;;;;;;;;;5013363;28;20021;-93
2023/03/22 00:15:25;;;;;;;0.00;0.00;;;10.30;99.90;;;;;;5011947;28;20128;-94
2023/03/22 00:17:51;;;;;;;0.00;0.00;;;10.20;99.90;;;;;;5012421;28;20385;-91
2023/03/22 00:20:18;;;;;;;0.00;0.00;;;10.20;99.90;;;;;;5007157;28;20038;-91
2023/03/22 00:22:45;;;;;;;0.00;0.00;;;;;;;;;;5007044;28;20089;-91
2023/03/22 00:25:11;;;;;;;0.00;0.00;;;10.30;99.90;;;;;;5007602;28;20022;-93
2023/03/22 00:27:36;;;;;;;0.00;0.00;;;10.40;99.90;;;;;;5010285;28;20060;-90
2023/03/22 00:30:04;;;;;;;0.00;0.00;;;10.40;99.90;;;;;;5007768;28;20026;-92
2023/03/22 00:32:30;;;;;;;0.00;0.00;;;;;;;;;;4988292;28;20049;-91
2023/03/22 00:34:55;;;;;;;0.00;0.00;;;10.50;99.90;;;;;;5006149;28;20034;-90
2023/03/22 00:37:20;;;;;;;0.10;0.10;;;10.50;99.90;;;;;;5005919;28;20058;-92
2023/03/22 00:39:46;;;;;;;0.00;0.00;;;;;;;;;;5010457;28;20022;-90
2023/03/22 00:42:12;;;;;;;0.00;0.00;;;;;;;;;;5017232;28;20025;-92
2023/03/22 00:44:38;;;;;;;0.00;0.00;;;10.60;99.90;;;;;;5011996;28;20033;-90
2023/03/22 00:47:04;;;;;;;0.00;0.00;;;;;;;;;;5006159;28;20034;-91
2023/03/22 00:49:30;;;;;;;0.10;0.10;;;10.60;99.90;;;;;;5027884;28;20115;-91
2023/03/22 00:51:56;;;;;;;0.03;0.03;;;;;;;;;;5011308;28;20040;-91
2023/03/22 00:54:22;;;;;;;0.00;0.00;;;;;;;;;;5009525;28;20033;-90
2023/03/22 00:56:48;;;;;;;0.00;0.00;;;;;;;;;;5011123;28;20032;-92
2023/03/22 00:59:15;;;;;;;0.00;0.00;;;10.80;99.90;;;;;;5012508;28;20120;-90
2023/03/22 01:01:41;;;;;;;0.00;0.00;;;;;;;;;;5016839;28;20025;-90
2023/03/22 01:04:07;;;;;;;0.00;0.00;;;10.80;99.90;;;;;;5025519;28;20061;-94
2023/03/22 01:06:33;;;;;;;0.00;0.00;;;10.90;99.90;;;;;;5011651;28;20022;-96
2023/03/22 01:08:59;;;;;;;0.00;0.00;;;;;;;;;;5011311;28;20036;-91
2023/03/22 01:11:25;;;;;;;0.00;0.00;;;;;;;;;;5009989;28;20022;-90
2023/03/22 01:13:53;;;;;;;0.00;0.00;;;10.80;99.90;;;;;;5029064;28;20044;-92
2023/03/22 01:16:19;;;;;;;0.10;0.10;;;;;;;;;;5013078;28;20094;-91
2023/03/22 01:18:45;;;;;;;0.00;0.00;;;;;;;;;;5009890;28;20029;-90
2023/03/22 01:21:11;;;;;;;0.00;0.00;;;;;;;;;;5007284;28;20037;-90
2023/03/22 01:23:37;;;;;;;0.00;0.00;;;10.80;99.90;;;;;;5008258;28;20090;-90
2023/03/22 01:26:03;;;;;;;0.00;0.00;;;;;;;;;;5008403;28;20045;-89
2023/03/22 01:28:29;;;;;;;0.00;0.00;;;;;;;;;;5006794;28;20026;-92
2023/03/22 01:30:55;;;;;;;0.10;0.10;;;;;;;;;;5024450;28;20076;-91
2023/03/22 01:33:22;;;;;;;0.00;0.00;;;;;;;;;;5008630;28;20030;-92
2023/03/22 01:35:48;;;;;;;0.00;0.00;;;;;;;;;;5010514;28;20121;-91
2023/03/22 01:38:14;;;;;;;0.00;0.00;;;;;;;;;;5012851;28;20033;-89
2023/03/22 01:40:40;;;;;;;0.05;0.05;;;;;;;;;;5009983;28;20021;-90
2023/03/22 01:43:13;;;;;;;0.00;0.00;;;10.80;99.90;;;;;;5010632;28;20040;-91
2023/03/22 01:45:43;;;;;;;0.00;0.00;;;10.80;99.90;;;;;;4992767;28;20030;-90
2023/03/22 01:48:20;;;;;;;0.00;0.00;;;10.80;99.90;;;;;;5008066;28;20022;-90
2023/03/22 01:51:09;;;;;;;0.00;0.00;;;10.80;99.90;;;;;;5009988;28;20280;-91
2023/03/22 01:53:43;;;;;;;0.10;0.10;;;10.80;99.90;;;;;;5011879;28;20064;-90
2023/03/22 01:56:10;;;;;;;0.10;0.10;;;10.80;99.90;;;;;;5012304;28;20034;-90
2023/03/22 01:58:36;;;;;;;0.00;0.00;;;10.80;99.90;;;;;;5011081;28;20040;-90
2023/03/22 02:01:04;;;;;;;0.00;0.00;;;10.80;99.90;;;;;;5013071;28;20040;-91
2023/03/22 02:03:54;;;;;;;0.00;0.00;;;10.80;99.90;;;;;;5014392;28;20033;-92
2023/03/22 02:06:21;;;;;;;0.00;0.00;;;;;;;;;;5007586;28;20064;-90
2023/03/22 02:08:48;;;;;;;0.00;0.00;;;10.90;99.90;;;;;;5009986;28;20053;-90
2023/03/22 02:11:17;;;;;;;0.10;0.10;;;10.80;99.90;;;;;;5009561;28;20026;-88
2023/03/22 02:14:09;;;;;;;0.00;0.00;;;10.70;99.90;;;;;;5007843;28;20033;-91
2023/03/22 02:16:44;;;;;;;0.00;0.00;;;10.80;99.90;;;;;;5007853;28;20520;-91
2023/03/22 02:19:29;;;;;;;0.00;0.00;;;10.70;99.90;;;;;;5010220;28;20026;-90
2023/03/22 02:21:55;;;;;;;0.00;0.00;;;;;;;;;;5012018;28;20040;-91
2023/03/22 02:24:54;;;;;;;0.00;0.00;;;10.80;99.90;;;;;;5009601;28;20097;-90
2023/03/22 02:27:22;;;;;;;0.00;0.00;;;10.80;99.90;;;;;;5012865;28;20566;-90
2023/03/22 02:29:48;;;;;;;0.00;0.00;;;;;;;;;;5010773;28;20077;-93
2023/03/22 02:32:45;;;;;;;0.00;0.00;;;10.90;99.90;;;;;;5017100;28;20029;-92
2023/03/22 02:35:40;;;;;;;0.00;0.00;;;10.80;99.90;;;;;;5023793;28;20060;-91
2023/03/22 02:38:44;;;;;;;0.00;0.00;;;10.70;99.90;;;;;;4986403;28;20039;-90
2023/03/22 02:41:27;;;;;;;0.10;0.10;;;10.70;99.90;;;;;;5005497;28;20134;-90
2023/03/22 02:44:16;;;;;;;0.10;0.10;;;10.60;99.90;;;;;;5010740;28;20137;-94
2023/03/22 02:47:01;;;;;;;0.10;0.10;;;10.60;99.90;;;;;;5012333;28;20088;-91
2023/03/22 02:49:44;;;;;;;0.00;0.00;;;10.70;99.90;;;;;;5028294;28;20026;-91
2023/03/22 02:52:20;;;;;;;0.10;0.10;;;10.60;99.90;;;;;;5011283;28;20030;-92
2023/03/22 02:54:56;;;;;;;0.00;0.00;;;10.40;99.90;;;;;;5011788;28;20025;-94
2023/03/22 02:57:35;;;;;;;0.00;0.00;;;10.70;99.90;;;;;;5011398;28;20018;-92
2023/03/22 03:00:06;;;;;;;0.00;0.00;;;10.60;99.90;;;;;;5009613;28;20054;-92
2023/03/22 03:02:33;;;;;;;0.00;0.00;;;10.60;99.90;;;;;;5003402;28;20064;-92
2023/03/22 03:04:59;;;;;;;0.10;0.10;;;10.70;99.90;;;;;;5005836;28;20025;-91
2023/03/22 03:07:27;;;;;;;0.10;0.10;;;11.00;99.90;;;;;;5011756;28;20032;-92
2023/03/22 03:09:53;;;;;;;0.00;0.00;;;;;;;;;;5007736;28;20040;-91
2023/03/22 03:12:22;;;;;;;0.00;0.00;;;10.60;99.90;;;;;;5009313;28;20026;-91
2023/03/22 03:14:48;;;;;;;0.00;0.00;;;;;;;;;;4990007;28;20041;-93
2023/03/22 03:17:37;;;;;;;0.00;0.00;;;10.70;99.90;;;;;;5006980;28;20026;-93
2023/03/22 03:20:16;;;;;;;0.10;0.10;;;9.80;99.90;;;;;;5006937;28;20049;-92
2023/03/22 03:23:01;;;;;;;0.10;0.10;;;10.60;99.90;;;;;;5011332;28;20065;-91
2023/03/22 03:25:56;;;;;;;0.00;0.00;;;10.60;99.90;;;;;;5008536;28;20293;-92
2023/03/22 03:28:37;;;;;;;0.00;0.00;;;10.50;99.90;;;;;;5009178;28;20028;-91
2023/03/22 03:31:08;;;;;;;0.00;0.00;;;10.60;99.90;;;;;;5007069;28;20488;-91
2023/03/22 03:33:39;;;;;;;0.00;0.00;;;10.60;99.90;;;;;;5021670;28;20149;-91
2023/03/22 03:36:09;;;;;;;0.00;0.00;;;10.50;99.90;;;;;;5007179;28;20428;-91
2023/03/22 03:38:38;;;;;;;0.00;0.00;;;10.50;99.90;;;;;;5009176;28;20084;-91
2023/03/22 03:41:08;;;;;;;0.00;0.00;;;10.40;99.90;;;;;;5003481;28;20027;-91
2023/03/22 03:43:34;;;;;;;0.00;0.00;;;;;;;;;;5008882;28;20049;-92
2023/03/22 03:46:01;;;;;;;0.00;0.00;;;10.40;99.90;;;;;;5009060;28;20026;-92
2023/03/22 03:48:32;;;;;;;0.00;0.00;;;10.50;99.90;;;;;;5008096;28;20027;-94
2023/03/22 03:51:01;;;;;;;0.10;0.10;;;10.40;99.90;;;;;;5009414;28;20029;-92
2023/03/22 03:53:28;;;;;;;0.00;0.00;;;10.50;99.90;;;;;;5024720;28;20064;-91
2023/03/22 03:55:54;;;;;;;0.00;0.00;;;;;;;;;;4994462;28;20038;-94
2023/03/22 03:58:20;;;;;;;0.00;0.00;;;10.50;99.90;;;;;;5008812;28;20034;-91
2023/03/22 04:00:46;;;;;;;0.00;0.00;;;10.40;99.90;;;;;;5009331;28;20401;-92
2023/03/22 04:03:12;;;;;;;0.10;0.10;;;10.40;99.90;;;;;;5014151;28;20034;-90
2023/03/22 04:05:38;;;;;;;0.00;0.00;;;10.40;99.90;;;;;;5007957;28;20025;-91
2023/03/22 04:08:04;;;;;;;0.00;0.00;;;10.40;99.90;;;;;;5006635;28;20026;-91
2023/03/22 04:10:29;;;;;;;0.00;0.00;;;10.40;99.90;;;;;;5006103;28;20061;-91
2023/03/22 04:12:55;;;;;;;0.00;0.00;;;;;;;;;;5010228;28;20036;-91
2023/03/22 04:15:21;;;;;;;0.00;0.00;;;10.50;99.90;;;;;;5005242;28;20447;-89
2023/03/22 04:17:47;;;;;;;0.03;0.03;;;;;;;;;;5006100;28;20064;-96
2023/03/22 04:20:13;;;;;;;0.00;0.00;;;10.60;99.90;;;;;;5008094;28;20037;-91
2023/03/22 04:22:39;;;;;;;0.10;0.10;;;10.60;99.90;;;;;;5010221;28;20025;-91
2023/03/22 04:25:11;;;;;;;0.03;0.03;;;10.60;99.90;;;;;;5009891;28;20050;-91
2023/03/22 04:27:38;;;;;;;0.00;0.00;;;10.70;99.90;;;;;;5009295;28;20036;-91
2023/03/22 04:30:09;;;;;;;0.00;0.00;;;10.70;99.90;;;;;;5009638;28;20038;-94
2023/03/22 04:32:35;;;;;;;0.00;0.00;;;;;;;;;;4994817;28;20040;-91
2023/03/22 04:35:00;;;;;;;0.00;0.00;;;10.70;99.90;;;;;;5008298;28;20026;-92
2023/03/22 04:37:26;;;;;;;0.00;0.00;;;10.70;99.90;;;;;;5010639;28;20030;-91
2023/03/22 04:39:52;;;;;;;0.00;0.00;;;;;;;;;;5011062;28;20053;-90
2023/03/22 04:42:18;;;;;;;0.00;0.00;;;;;;;;;;5015638;28;20092;-89
2023/03/22 04:44:44;;;;;;;0.00;0.00;;;10.40;99.90;;;;;;5009784;28;20108;-91
2023/03/22 04:47:10;;;;;;;0.00;0.00;;;;;;;;;;5003361;28;20021;-90
2023/03/22 04:49:36;;;;;;;0.00;0.00;;;;;;;;;;4999977;28;20033;-92
2023/03/22 04:52:02;;;;;;;0.00;0.00;;;;;;;;;;4999445;28;20034;-90
2023/03/22 04:54:28;;;;;;;0.00;0.00;;;;;;;;;;5004346;28;20030;-91
2023/03/22 04:56:54;;;;;;;0.05;0.05;;;;;;;;;;5008967;28;20473;-90
2023/03/22 04:59:20;;;;;;;0.00;0.00;;;10.80;99.90;;;;;;5007889;28;20026;-90
2023/03/22 05:01:49;;;;;;;0.00;0.00;;;10.80;99.90;;;;;;5004639;28;20709;-91
2023/03/22 05:04:15;;;;;;;0.00;0.00;;;10.80;99.90;;;;;;5009864;28;20050;-90
2023/03/22 05:06:41;;;;;;;0.00;0.00;;;;;;;;;;5009126;28;20052;-89
2023/03/22 05:09:08;;;;;;;0.00;0.00;;;10.80;99.90;;;;;;5006569;28;20038;-91
2023/03/22 05:11:33;;;;;;;0.00;0.00;;;11.00;99.90;;;;;;5006106;28;20045;-92
2023/03/22 05:13:59;;;;;;;0.00;0.00;;;;;;;;;;5009829;28;20033;-91
2023/03/22 05:16:25;;;;;;;0.00;0.00;;;;;;;;;;5007497;28;20038;-91
2023/03/22 05:18:53;;;;;;;0.00;0.00;;;;;;;;;;5003885;28;20113;-91
2023/03/22 05:21:27;;;;;;;0.00;0.00;;;10.90;99.90;;;;;;5010136;28;20025;-90
2023/03/22 05:23:57;;;;;;;0.00;0.00;;;10.80;99.90;;;;;;5008848;28;20045;-91
2023/03/22 05:26:25;;;;;;;;;;;10.80;99.90;;;;;;5010991;28;20089;-91
2023/03/22 05:28:54;;;;;;;0.00;0.00;;;10.80;99.90;;;;;;5010791;28;19935;-89
2023/03/22 05:31:21;;;;;;;0.00;0.00;;;10.80;99.90;;;;;;5014238;28;20049;-89
2023/03/22 05:33:50;;;;;;;0.00;0.00;;;10.80;99.90;;;;;;5012231;28;20097;-90
2023/03/22 05:37:01;;;;;;;0.00;0.00;;;10.80;99.90;;;;;;5012424;28;20037;-90
2023/03/22 05:39:29;;;;;;;0.00;0.00;;;;;;;;;;4972646;28;20023;-88
2023/03/22 05:41:55;;;;;;;0.00;0.00;;;;;;;;;;4972067;28;20035;-90
2023/03/22 05:44:21;;;;;;;0.10;0.10;;;;;;;;;;5001272;28;20121;-92
2023/03/22 05:46:46;;;;;;;0.00;0.00;;;10.70;99.90;;;;;;5008003;28;20041;-90
2023/03/22 05:49:12;;;;;;;0.00;0.00;;;10.80;99.90;;;;;;5010126;28;20083;-91
2023/03/22 05:51:40;;;;;;;0.00;0.00;;;;;;;;;;5006482;28;20045;-90
2023/03/22 05:54:07;;;;;;;0.00;0.00;;;;;;;;;;5003210;28;20021;-93
2023/03/22 05:56:33;;;;;;;0.00;0.00;;;10.70;99.90;;;;;;4992986;28;20037;-91
2023/03/22 05:58:59;;;;;;;0.00;0.00;;;;;;;;;;5009470;28;20045;-90
2023/03/22 06:01:24;;;;;;;0.00;0.00;;;;;;;;;;5010970;28;20515;-91
2023/03/22 06:03:50;;;;;;;0.00;0.00;;;;;;;;;;5009894;28;20030;-90
2023/03/22 06:06:16;;;;;;;0.00;0.00;;;10.80;99.90;;;;;;5008556;28;20085;-89
2023/03/22 06:08:42;;;;;;;0.00;0.00;;;10.40;99.90;;;;;;5011051;28;20120;-91
2023/03/22 06:11:07;;;;;;;0.00;0.00;;;10.80;99.90;;;;;;5012487;28;20077;-91
2023/03/22 06:13:34;;;;;;;0.00;0.00;;;;;;;;;;5011034;28;20061;-91
2023/03/22 06:16:01;;;;;;;0.00;0.00;;;10.40;99.90;;;;;;5011885;28;20034;-91
2023/03/22 06:18:27;;;;;;;0.00;0.00;;;;;;;;;;5014540;28;20037;-91
2023/03/22 06:20:53;;;;;;;0.00;0.00;;;;;;;;;;5005455;28;20029;-90
2023/03/22 06:23:19;;;;;;;0.00;0.00;;;;;;;;;;5024610;28;20034;-93
2023/03/22 06:25:45;;;;;;;0.00;0.00;;;;;;;;;;5007115;28;20037;-90
2023/03/22 06:28:12;;;;;;;0.00;0.00;;;;;;;;;;5009314;28;20029;-90
2023/03/22 06:30:38;;;;;;;0.00;0.00;;;;;;;;;;5004141;28;20030;-92
2023/03/22 06:33:05;;;;;;;0.00;0.00;;;;;;;;;;5006647;28;20030;-90
2023/03/22 06:35:32;;;;;;;0.00;0.00;;;11.20;99.90;;;;;;5009847;28;20098;-89
2023/03/22 06:37:58;;;;;;;0.00;0.00;;;;;;;;;;5004286;28;20029;-90
2023/03/22 06:40:24;;;;;;;0.00;0.00;;;11.30;99.90;;;;;;5011228;28;20034;-90
2023/03/22 06:42:49;;;;;;;0.00;0.00;;;;;;;;;;5013564;28;20056;-91
2023/03/22 06:45:15;;;;;;;0.08;0.08;;;;;;;;;;5010910;28;20026;-89
2023/03/22 06:47:42;;;;;;;0.00;0.00;;;11.40;99.90;;;;;;5003005;28;20034;-91
2023/03/22 06:50:09;;;;;;;0.00;0.00;;;11.40;99.90;;;;;;5011064;28;20030;-89
2023/03/22 06:52:34;;;;;;;0.00;0.00;;;11.30;99.90;;;;;;5003700;28;20026;-91
2023/03/22 06:55:00;;;;;;;0.00;0.00;;;;;;;;;;5011332;28;20032;-90
2023/03/22 06:57:26;;;;;;;0.00;0.00;;;11.50;99.90;;;;;;5001546;28;20026;-91
2023/03/22 06:59:52;;;;;;;0.10;0.10;;;;;;;;;;5013025;28;20564;-90
2023/03/22 07:02:18;;;;;;;0.00;0.00;;;;;;;;;;5007544;28;20030;-89
2023/03/22 07:04:45;;;;;;;0.00;0.00;;;12.00;99.90;;;;;;5006025;28;20040;-90
2023/03/22 07:07:11;;;;;;;0.00;0.00;;;;;;;;;;5008828;28;20026;-90
2023/03/22 07:09:38;;;;;;;0.00;0.00;;;12.30;99.90;;;;;;5012723;28;20070;-91
2023/03/22 07:12:05;;;;;;;0.00;0.00;;;;;;;;;;5012972;28;20022;-91
2023/03/22 07:14:31;;;;;;;0.00;0.00;;;12.50;99.90;;;;;;5006854;28;20040;-90
2023/03/22 07:16:57;;;;;;;0.00;0.00;;;;;;;;;;5005653;28;20071;-90
2023/03/22 07:19:23;;;;;;;0.00;0.00;;;;;;;;;;5002079;28;20028;-90
2023/03/22 07:21:49;;;;;;;0.00;0.00;;;;;;;;;;5008020;28;20101;-91
2023/03/22 07:24:15;;;;;;;0.00;0.00;;;;;;;;;;5009066;28;20041;-90
2023/03/22 07:26:41;;;;;;;0.00;0.00;;;;;;;;;;5010600;28;20034;-90
2023/03/22 07:29:07;;;;;;;0.00;0.00;;;12.70;99.90;;;;;;5010970;28;20069;-90
2023/03/22 07:31:35;;;;;;;0.00;0.00;;;12.70;99.90;;;;;;5009298;28;20037;-88
2023/03/22 07:34:02;;;;;;;0.00;0.00;;;12.80;99.90;;;;;;5008401;28;20022;-90
2023/03/22 07:36:28;;;;;;;0.00;0.00;;;12.80;99.90;;;;;;5006789;28;20033;-91
2023/03/22 07:38:53;;;;;;;0.00;0.00;;;12.80;99.90;;;;;;5004336;28;20032;-89
2023/03/22 07:41:19;;;;;;;0.00;0.00;;;;;;;;;;5009319;28;20064;-90
2023/03/22 07:43:45;;;;;;;0.00;0.00;;;12.90;99.90;;;;;;5002893;28;20037;-89
2023/03/22 07:46:11;;;;;;;0.00;0.00;;;12.90;99.90;;;;;;5007513;28;20030;-90
2023/03/22 07:48:37;;;;;;;0.00;0.00;;;12.90;99.90;;;;;;5006198;28;20037;-91
2023/03/22 07:51:04;;;;;;;0.00;0.00;;;12.90;99.90;;;;;;5004535;28;20014;-91
2023/03/22 07:53:29;;;;;;;0.00;0.00;;;;;;;;;;5005588;28;20038;-90
2023/03/22 07:55:55;;;;;;;0.00;0.00;;;;;;;;;;5006591;28;20037;-90
2023/03/22 07:58:21;;;;;;;0.00;0.00;;;;;;;;;;5001787;28;20097;-89
2023/03/22 08:00:48;;;;;;;0.00;0.00;;;;;;;;;;5005210;28;20033;-91
2023/03/22 08:03:14;;;;;;;0.00;0.00;;;;;;;;;;5022439;28;20034;-89
2023/03/22 08:05:41;;;;;;;0.00;0.00;;;13.00;99.90;;;;;;5003150;28;20030;-90
2023/03/22 08:08:08;;;;;;;0.00;0.00;;;12.90;99.90;;;;;;5007331;28;20022;-89
2023/03/22 08:10:33;;;;;;;0.00;0.00;;;12.90;99.90;;;;;;5010313;28;20030;-90
2023/03/22 08:12:59;;;;;;;0.00;0.00;;;12.90;99.90;;;;;;5005886;28;20092;-90
2023/03/22 08:15:25;;;;;;;0.00;0.00;;;;;;;;;;5004705;28;20064;-90
2023/03/22 08:17:51;;;;;;;0.00;0.00;;;;;;;;;;5006127;28;20030;-90
2023/03/22 08:20:17;;;;;;;0.00;0.00;;;12.80;99.90;;;;;;5006936;28;20031;-91
2023/03/22 08:22:43;;;;;;;0.00;0.00;;;;;;;;;;5007255;28;20039;-90
2023/03/22 08:25:10;;;;;;;0.00;0.00;;;;;;;;;;5009954;28;20028;-91
2023/03/22 08:27:36;;;;;;;0.00;0.00;;;;;;;;;;5005585;28;20062;-91
2023/03/22 08:30:02;;;;;;;0.00;0.00;;;12.60;99.90;;;;;;5003918;28;20018;-90
2023/03/22 08:32:28;;;;;;;0.00;0.00;;;12.60;99.90;;;;;;5005861;28;20089;-91
2023/03/22 08:34:54;;;;;;;0.00;0.00;;;;;;;;;;5009932;28;20033;-90
2023/03/22 08:37:20;;;;;;;0.00;0.00;;;;;;;;;;5012051;28;20399;-90
2023/03/22 08:39:46;;;;;;;0.00;0.00;;;12.80;99.90;;;;;;5007546;28;20049;-90
2023/03/22 08:42:11;;;;;;;0.00;0.00;;;12.80;99.90;;;;;;5010949;28;20105;-91
2023/03/22 08:44:37;;;;;;;0.00;0.00;;;13.00;99.90;;;;;;5002689;28;20093;-88
2023/03/22 08:47:03;;;;;;;0.00;0.00;;;13.10;99.90;;;;;;5003451;28;20022;-90
2023/03/22 08:49:30;;;;;;;0.00;0.00;;;14.80;99.90;;;;;;5005578;28;20026;-90
2023/03/22 08:51:56;;;;;;;0.00;0.00;;;13.40;99.90;;;;;;5012061;28;20041;-90
2023/03/22 08:54:22;;;;;;;0.00;0.00;;;13.40;99.90;;;;;;5002822;28;20034;-86
2023/03/22 08:56:48;;;;;;;0.00;0.00;;;13.40;99.90;;;;;;5005074;28;20038;-88
2023/03/22 08:59:14;;;;;;;0.00;0.00;;;;;;;;;;5010600;28;20033;-90
2023/03/22 09:01:39;;;;;;;0.00;0.00;;;13.50;99.90;;;;;;5009342;28;20030;-89
2023/03/22 09:04:05;;;;;;;0.00;0.00;;;;;;;;;;5003413;28;20041;-90
2023/03/22 09:06:31;;;;;;;0.00;0.00;;;;;;;;;;5003819;28;20026;-92
2023/03/22 09:08:57;;;;;;;0.00;0.00;;;13.90;99.90;;;;;;5010083;28;20091;-90
2023/03/22 09:11:23;;;;;;;0.00;0.00;;;13.80;99.90;;;;;;5009727;28;20022;-91
2023/03/22 09:13:50;;;;;;;0.00;0.00;;;13.80;99.90;;;;;;5011752;28;20030;-92
2023/03/22 09:16:16;;;;;;;0.00;0.00;;;;;;;;;;5015698;28;20025;-89
2023/03/22 09:18:42;;;;;;;0.00;0.00;;;;;;;;;;5011359;28;20064;-89
2023/03/22 09:21:08;;;;;;;0.00;0.00;;;13.60;99.90;;;;;;5023010;28;20038;-91
2023/03/22 09:23:36;;;;;;;0.00;0.00;;;13.50;99.90;;;;;;5009259;28;20132;-90
2023/03/22 09:26:04;;;;;;;0.00;0.00;;;13.30;99.90;;;;;;5014933;28;20018;-91
2023/03/22 09:28:30;;;;;;;0.00;0.00;;;13.30;99.90;;;;;;5008994;28;20037;-90
2023/03/22 09:31:00;;;;;;;0.00;0.00;;;13.50;99.90;;;;;;5006284;28;20030;-90
2023/03/22 09:33:26;;;;;;;0.00;0.00;;;13.80;99.90;;;;;;5006309;28;20093;-90
2023/03/22 09:35:52;;;;;;;0.00;0.00;;;14.00;99.90;;;;;;5007276;28;20485;-90
2023/03/22 09:38:19;;;;;;;0.00;0.00;;;;;;;;;;5012090;28;20022;-90
2023/03/22 09:40:59;;;;;;;0.00;0.00;;;14.20;99.90;;;;;;5007998;28;20195;-91
2023/03/22 09:43:29;;;;;;;0.00;0.00;;;14.60;99.90;;;;;;5013240;28;20088;-90
2023/03/22 09:45:54;;;;;;;0.00;0.00;;;;;;;;;;5014610;28;20018;-89
2023/03/22 09:48:27;;;;;;;0.00;0.00;;;14.60;99.90;;;;;;5012266;28;20025;-90
2023/03/22 09:51:01;;;;;;;0.00;0.00;;;14.40;99.90;;;;;;5013237;28;20029;-90
2023/03/22 09:53:28;;;;;;;0.00;0.00;;;14.80;99.90;;;;;;5011806;28;20026;-90
2023/03/22 09:56:13;;;;;;;0.00;0.00;;;15.20;99.90;;;;;;5012638;28;20029;-90
2023/03/22 09:59:05;;;;;;;0.00;0.00;;;15.20;99.90;;;;;;5004316;28;20101;-90
2023/03/22 10:01:56;;;;;;;0.00;0.00;;;15.20;99.90;;;;;;5004321;28;20114;-90
2023/03/22 10:04:55;;;;;;;0.00;0.00;;;15.40;99.90;;;;;;5009874;28;20033;-90
2023/03/22 10:07:51;;;;;;;0.00;0.00;;;15.40;99.90;;;;;;5003383;28;20503;-91
2023/03/22 10:10:22;;;;;;;0.00;0.00;;;15.40;99.90;;;;;;5006278;28;20026;-90
2023/03/22 10:12:56;;;;;;;0.00;0.00;;;15.30;99.90;;;;;;5018198;28;20034;-90
2023/03/22 10:15:36;;;;;;;0.00;0.00;;;15.40;99.90;;;;;;5003352;28;20041;-89
2023/03/22 10:18:04;;;;;;;;;;;15.40;99.90;;;;;;5011435;28;20030;-90
2023/03/22 10:20:44;;;;;;;0.00;0.00;;;15.40;99.90;;;;;;5015868;28;19913;-89
2023/03/22 10:23:24;;;;;;;0.00;0.00;;;15.50;99.90;;;;;;5008816;28;20025;-90
2023/03/22 10:25:51;;;;;;;0.00;0.00;;;;;;;;;;5010161;28;20034;-88
2023/03/22 10:28:23;;;;;;;0.00;0.00;;;15.60;99.90;;;;;;5002082;28;20534;-89
2023/03/22 10:30:55;;;;;;;0.00;0.00;;;15.40;99.90;;;;;;5007051;28;20056;-91
2023/03/22 10:33:53;;;;;;;0.00;0.00;;;15.70;99.90;;;;;;5012447;28;20034;-89
2023/03/22 10:36:22;;;;;;;0.00;0.00;;;16.00;99.90;;;;;;5002019;28;20105;-89
2023/03/22 10:38:56;;;;;;;0.00;0.00;;;16.00;99.90;;;;;;5000864;28;20117;-89
2023/03/22 10:41:24;;;;;;;0.00;0.00;;;15.90;99.90;;;;;;5001339;28;20057;-91
2023/03/22 10:43:54;;;;;;;0.00;0.00;;;15.70;99.90;;;;;;5016977;28;20025;-90
2023/03/22 10:46:24;;;;;;;0.00;0.00;;;15.90;99.90;;;;;;5004163;28;20061;-90
2023/03/22 10:48:52;;;;;;;0.00;0.00;;;16.00;99.90;;;;;;4997789;28;20032;-90
2023/03/22 10:51:39;;;;;;;0.00;0.00;;;15.70;99.90;;;;;;5017243;28;20018;-90
2023/03/22 10:54:05;;;;;;;0.00;0.00;;;;;;;;;;5002105;28;20072;-86
2023/03/22 10:56:32;;;;;;;0.00;0.00;;;;;;;;;;5016011;28;20041;-91
2023/03/22 10:58:58;;;;;;;0.00;0.00;;;;;;;;;;5003311;28;20033;-91
2023/03/22 11:01:32;;;;;;;0.00;0.00;;;15.80;99.80;;;;;;5001892;28;20060;-91
2023/03/22 11:04:05;;;;;;;0.00;0.00;;;15.90;99.90;;;;;;5001693;28;20121;-90
2023/03/22 11:06:34;;;;;;;0.00;0.00;;;15.90;99.20;;;;;;4997936;28;20026;-91
2023/03/22 11:09:10;;;;;;;0.00;0.00;;;15.90;99.40;;;;;;5002883;28;20030;-89
2023/03/22 11:11:45;;;;;;;0.00;0.00;;;15.70;99.40;;;;;;5015779;28;20030;-89
2023/03/22 11:14:14;;;;;;;0.00;0.00;;;15.60;99.70;;;;;;5000251;28;20030;-88
2023/03/22 11:17:06;;;;;;;0.00;0.00;;;15.60;99.90;;;;;;5000573;28;20228;-90
2023/03/22 11:19:35;;;;;;;0.00;0.00;;;15.80;99.40;;;;;;4992903;28;20034;-90
2023/03/22 11:22:03;;;;;;;0.00;0.00;;;15.70;98.40;;;;;;5002111;28;20480;-90
2023/03/22 11:24:31;;;;;;;0.00;0.00;;;15.80;98.80;;;;;;5000166;28;20041;-91
2023/03/22 11:27:24;;;;;;;0.00;0.00;;;15.90;99.80;;;;;;5001446;28;20026;-90
2023/03/22 11:29:51;;;;;;;0.00;0.00;;;16.10;98.80;;;;;;4995723;28;20040;-91
2023/03/22 11:32:31;;;;;;;0.00;0.00;;;15.40;98.80;;;;;;4999387;28;20057;-90
2023/03/22 11:35:10;;;;;;;0.00;0.00;;;16.20;98.70;;;;;;4996957;28;20022;-90
2023/03/22 11:37:41;;;;;;;0.00;0.00;;;16.10;97.90;;;;;;4999807;28;20033;-90
2023/03/22 11:40:12;;;;;;;0.00;0.00;;;15.90;98.10;;;;;;5000277;28;20037;-90
2023/03/22 11:42:44;;;;;;;0.00;0.00;;;;;;;;;;5003036;28;20030;-90
2023/03/22 11:45:17;;;;;;;0.00;0.00;;;16.30;97.80;;;;;;4997693;28;20026;-90
2023/03/22 11:47:43;;;;;;;0.00;0.00;;;;;;;;;;4997560;28;20507;-90
2023/03/22 11:50:26;;;;;;;0.00;0.00;;;16.30;98.70;;;;;;4999543;28;20049;-87
2023/03/22 11:52:52;;;;;;;0.00;0.00;;;;;;;;;;4997368;28;20429;-88
2023/03/22 11:55:19;;;;;;;0.00;0.00;;;;;;;;;;5003174;28;20030;-89
2023/03/22 11:57:45;;;;;;;0.00;0.00;;;16.60;97.20;;;;;;5000108;28;20026;-85
2023/03/22 12:00:19;;;;;;;0.00;0.00;;;17.60;97.80;;;;;;5002796;28;20041;-90
2023/03/22 12:02:52;;;;;;;0.00;0.00;;;16.50;97.00;;;;;;4993564;28;20033;-90
2023/03/22 12:05:22;;;;;;;0.00;0.00;;;16.50;96.50;;;;;;4998248;28;20026;-89
2023/03/22 12:07:54;;;;;;;0.00;0.00;;;16.60;96.80;;;;;;5003570;28;20018;-88
2023/03/22 12:10:28;;;;;;;0.00;0.00;;;16.70;97.40;;;;;;5000604;28;20609;-90
2023/03/22 12:13:03;;;;;;;0.00;0.00;;;16.70;97.00;;;;;;4998972;28;20018;-88
2023/03/22 12:15:33;;;;;;;0.00;0.00;;;16.90;96.50;;;;;;4998989;28;20022;-90
2023/03/22 12:18:14;;;;;;;0.00;0.00;;;16.90;97.10;;;;;;5014148;28;20129;-90
2023/03/22 12:20:50;;;;;;;0.00;0.00;;;17.00;95.90;;;;;;4987386;28;20077;-90
2023/03/22 12:23:23;;;;;;;0.00;0.00;;;17.00;95.20;;;;;;5015150;28;20026;-91
2023/03/22 12:25:50;;;;;;;0.00;0.00;;;17.10;96.40;;;;;;5017820;28;20025;-90
2023/03/22 12:28:27;;;;;;;0.00;0.00;;;17.10;96.60;;;;;;5013055;28;20041;-91
2023/03/22 12:31:50;;;;;;;;;;;;;;;;;;;;;
2023/03/22 12:34:20;;;;;;;0.00;0.00;;;17.20;95.60;;;;;;5011499;28;20089;-87
2023/03/22 12:36:53;;;;;;;0.00;0.00;;;17.10;95.70;;;;;;5014485;28;20042;-91
2023/03/22 12:39:19;;;;;;;0.00;0.00;;;;;;;;;;5008754;28;20304;-91
2023/03/22 12:41:51;;;;;;;0.00;0.00;;;17.00;95.30;;;;;;5013132;28;20037;-90
2023/03/22 12:44:32;;;;;;;0.00;0.00;;;17.20;96.00;;;;;;5013682;28;20037;-87
2023/03/22 12:47:03;;;;;;;0.00;0.00;;;17.20;95.90;;;;;;5018370;28;20022;-89
2023/03/22 12:49:39;;;;;;;0.00;0.00;;;17.40;95.80;;;;;;5009514;28;20026;-90
2023/03/22 12:52:19;;;;;;;0.00;0.00;;;17.10;95.90;;;;;;5009321;28;20037;-90
2023/03/22 12:54:47;;;;;;;0.00;0.00;;;17.30;94.70;;;;;;5005923;28;20046;-89
2023/03/22 12:57:15;;;;;;;0.00;0.00;;;17.40;95.10;;;;;;5023942;28;20022;-90
2023/03/22 12:59:45;;;;;;;0.00;0.00;;;17.40;95.40;;;;;;5013120;28;20032;-90
2023/03/22 13:02:33;;;;;;;0.00;0.00;;;19.00;96.10;;;;;;5009691;28;20382;-87
2023/03/22 13:05:03;;;;;;;0.00;0.00;;;17.20;94.00;;;;;;5025951;28;20034;-88
2023/03/22 13:07:45;;;;;;;0.00;0.00;;;18.20;94.50;;;;;;5014021;28;20240;-90
2023/03/22 13:10:29;;;;;;;0.00;0.00;;;17.00;94.80;;;;;;5013342;28;20041;-90
2023/03/22 13:13:15;;;;;;;0.00;0.00;;;16.70;95.80;;;;;;5013944;28;20022;-91
2023/03/22 13:15:56;;;;;;;0.00;0.00;;;16.70;95.60;;;;;;5014578;28;20032;-90
2023/03/22 13:18:28;;;;;;;0.00;0.00;;;16.60;98.20;;;;;;5012701;28;20022;-90
2023/03/22 13:21:15;;;;;;;0.00;0.00;;;16.60;98.10;;;;;;5006297;28;20113;-87
2023/03/22 13:24:09;;;;;;;0.00;0.00;;;16.40;98.20;;;;;;5017334;28;20035;-89
2023/03/22 13:26:52;;;;;;;0.00;0.00;;;16.30;99.90;;;;;;5009396;28;20029;-89
2023/03/22 13:29:18;;;;;;;0.00;0.00;;;;;;;;;;5008845;28;20030;-91
2023/03/22 13:31:57;;;;;;;0.00;0.00;;;16.10;99.90;;;;;;5019081;28;20022;-93
2023/03/22 13:34:55;;;;;;;0.00;0.00;;;16.00;99.90;;;;;;5016875;28;20022;-86
2023/03/22 16:22:49;;;;;;;0.00;0.00;;;14.50;98.00;;;;;;4993365;28;20481;-88
2023/03/22 16:25:21;;;;;;;0.10;0.10;;;14.40;98.10;;;;;;4985117;28;20023;-90